Accord, New York
Current Conditions -  °F | °C
As of 10:54 PM on Sunday 21 Dec 2014 (Local Time) from KMGJ Reporting Station
Overcast Overcast  
Wind Chill: 27°   Ceiling: 2400
Heat Index: 32°   Visibility: 10mi
Dew Point: 27°   Wind: 5mph
Humidity: 82%   Direction: 30°NNE
Pressure: 30.33"   Gusts: NA
Location:  41.79°N, 74.23°W
Report Text: KMGJ 220354Z AUTO 03004KT 10SM OVC024 00/M03 A3033 RMK AO2 SLP273 T00001028 TSNO
Loading
Personal Weather Stations






























Interactive Weather Map New forecast layout! Learn more

10-Day Weather Forecast

Advertisements
Track Severe Weather on mobile